createdAt,value
2023-06-08T00:10:27.169Z,76.8
2023-06-08T00:30:27.128Z,77.7
2023-06-08T00:50:27.087Z,78.1
2023-06-08T01:10:27.060Z,77.1
2023-06-08T01:30:27.002Z,77.1
2023-06-08T01:50:27.029Z,77.4
2023-06-08T02:10:26.927Z,78.1
2023-06-08T02:30:26.927Z,79.7
2023-06-08T02:50:26.852Z,80.8
2023-06-08T03:10:26.822Z,82.2
2023-06-08T04:10:26.694Z,85.2
2023-06-08T04:30:26.654Z,84.7
2023-06-08T04:50:26.617Z,84.2
2023-06-08T05:10:26.569Z,83.2
2023-06-08T05:30:26.528Z,81.9
2023-06-08T05:50:26.494Z,81.7
2023-06-08T06:10:26.464Z,80.9
2023-06-08T06:30:26.421Z,77.6
2023-06-08T06:50:26.418Z,76.4
2023-06-08T07:10:26.350Z,75.8
2023-06-08T07:50:26.257Z,72.7
2023-06-08T08:10:26.808Z,67.8
2023-06-08T08:30:26.172Z,63.9
2023-06-08T08:50:26.166Z,61.9
2023-06-08T09:10:26.093Z,59.5
2023-06-08T09:30:26.102Z,58.4
2023-06-08T09:50:26.003Z,55.7
2023-06-08T10:10:25.961Z,54.3
2023-06-08T10:30:25.921Z,51
2023-06-08T10:50:25.869Z,50.1
2023-06-08T11:50:25.755Z,46
2023-06-08T14:50:25.400Z,44
2023-06-08T15:10:25.336Z,44.1
2023-06-08T15:30:25.348Z,43
2023-06-08T15:50:25.249Z,40.6
2023-06-08T16:10:25.209Z,44.5
2023-06-08T16:30:25.202Z,44.6
2023-06-08T16:50:25.131Z,44.8
2023-06-08T17:10:25.091Z,45
2023-06-08T17:30:25.047Z,44.5
2023-06-08T17:50:24.991Z,46.1
2023-06-08T18:10:24.979Z,47.5
2023-06-08T18:30:24.918Z,48.4
2023-06-08T18:50:24.870Z,50
2023-06-08T19:50:24.751Z,53.6
2023-06-08T20:10:24.713Z,55
2023-06-08T20:30:24.661Z,56.8
2023-06-08T20:50:24.663Z,58.5
2023-06-08T21:10:24.585Z,59.5
2023-06-08T22:50:24.364Z,72
2023-06-08T23:30:24.311Z,76.1
